Terminal Aerodrome Forecast
Issued by NWS St Louis, MO

Home | Current Version | Previous Version | Graphics & Text | Print | Product List | Glossary On
Versions: 1 2 3 4 5 6 7 8 9 10 11 12 13 14 15 16 17 18 19 20 21 22 23 24
835
FTUS43 KLSX 222016 AAA
TAFSTL
TAF AMD
KSTL 222016Z 2220/2324 01005KT P6SM FEW250
     FM222300 05004KT P6SM FEW250
     FM230100 15004KT P6SM FEW250=

USA.gov is the U.S. government's official web portal to all federal, state and local government web resources and services.